createdAt,value
2023-04-10T00:01:22.439Z,64.78
2023-04-10T00:04:26.129Z,64.45
2023-04-10T00:07:30.249Z,64.80
2023-04-10T00:10:33.868Z,64.71
2023-04-10T00:13:39.201Z,64.69
2023-04-10T00:16:42.947Z,64.36
2023-04-10T00:19:47.705Z,64.40
2023-04-10T00:22:51.417Z,64.33
2023-04-10T00:25:55.553Z,64.42
2023-04-10T00:29:00.708Z,64.64
2023-04-10T00:32:05.078Z,64.63
2023-04-10T00:35:10.097Z,64.70
2023-04-10T00:38:14.244Z,64.99
2023-04-10T00:41:17.998Z,65.47
2023-04-10T00:44:23.822Z,65.33
2023-04-10T00:47:28.542Z,66.12
2023-04-10T00:50:32.579Z,66.15
2023-04-10T00:53:36.347Z,66.21
2023-04-10T00:56:41.186Z,66.17
2023-04-10T00:59:48.652Z,66.30
2023-04-10T01:02:52.998Z,66.48
2023-04-10T01:06:05.648Z,66.13
2023-04-10T01:09:17.142Z,66.58
2023-04-10T01:12:39.595Z,67.92
2023-04-10T01:15:53.717Z,67.43
2023-04-10T01:19:04.988Z,66.64
2023-04-10T01:22:13.710Z,66.34
2023-04-10T01:25:34.550Z,66.09
2023-04-10T01:28:54.740Z,66.56
2023-04-10T01:32:03.963Z,66.60
2023-04-10T01:35:09.785Z,65.79
2023-04-10T01:38:32.544Z,65.79
2023-04-10T01:41:38.320Z,66.15
2023-04-10T01:44:47.864Z,66.40
2023-04-10T01:47:52.959Z,65.77
2023-04-10T01:50:57.892Z,66.13
2023-04-10T01:54:05.741Z,66.31
2023-04-10T01:57:14.181Z,66.63
2023-04-10T02:00:41.337Z,66.39
2023-04-10T02:03:45.386Z,67.59
2023-04-10T02:06:58.957Z,67.01
2023-04-10T02:10:11.085Z,67.40
2023-04-10T02:13:19.583Z,67.24
2023-04-10T02:16:25.294Z,67.21
2023-04-10T02:19:30.237Z,67.20
2023-04-10T02:22:34.403Z,67.22
2023-04-10T02:25:38.719Z,67.62
2023-04-10T02:28:42.328Z,67.38
2023-04-10T02:31:48.328Z,66.85
2023-04-10T02:34:51.990Z,66.87
2023-04-10T02:37:56.332Z,67.14
2023-04-10T02:41:00.168Z,67.06
2023-04-10T02:44:04.248Z,66.91
2023-04-10T02:47:09.319Z,67.15
2023-04-10T02:50:17.508Z,66.78
2023-04-10T02:53:23.257Z,67.04
2023-04-10T02:56:31.029Z,67.58
2023-04-10T02:59:34.669Z,67.59
2023-04-10T03:02:42.376Z,67.20
2023-04-10T03:05:52.578Z,67.73
2023-04-10T03:09:02.504Z,68.46
2023-04-10T03:12:05.990Z,68.45
2023-04-10T03:15:10.565Z,68.44
2023-04-10T03:18:15.596Z,68.44
2023-04-10T03:21:22.095Z,68.90
2023-04-10T03:24:27.200Z,68.79
2023-04-10T03:27:34.909Z,68.31
2023-04-10T03:30:39.333Z,69.42
2023-04-10T03:33:44.762Z,69.14
2023-04-10T03:36:48.521Z,69.41
2023-04-10T03:39:52.460Z,69.46
2023-04-10T03:42:56.120Z,69.46
2023-04-10T03:46:02.190Z,68.81
2023-04-10T03:49:07.774Z,69.01
2023-04-10T03:52:12.153Z,69.59
2023-04-10T03:55:19.101Z,68.88
2023-04-10T03:58:24.321Z,69.62
2023-04-10T04:01:30.686Z,70.25
2023-04-10T04:04:41.696Z,69.03
2023-04-10T04:08:13.689Z,68.82
2023-04-10T04:11:35.761Z,68.90
2023-04-10T04:14:44.888Z,68.84
2023-04-10T04:18:07.958Z,69.62
2023-04-10T04:21:15.798Z,69.10
2023-04-10T04:24:38.451Z,69.07
2023-04-10T04:27:52.323Z,70.04
2023-04-10T04:31:15.055Z,69.34
2023-04-10T04:34:36.889Z,69.31
2023-04-10T04:37:49.744Z,68.81
2023-04-10T04:41:05.634Z,69.19
2023-04-10T04:44:30.005Z,68.98
2023-04-10T04:47:53.906Z,69.28
2023-04-10T04:51:04.826Z,69.99
2023-04-10T04:54:38.937Z,70.27
2023-04-10T04:58:01.534Z,70.62
2023-04-10T05:01:23.431Z,70.46
2023-04-10T05:04:46.707Z,70.16
2023-04-10T05:08:13.669Z,71.37
2023-04-10T05:11:38.947Z,70.01
2023-04-10T05:14:51.355Z,71.01
2023-04-10T05:18:19.743Z,70.95
2023-04-10T05:21:49.719Z,70.49
2023-04-10T05:25:21.922Z,71.05
2023-04-10T05:28:41.220Z,70.90
2023-04-10T05:32:01.115Z,72.24
2023-04-10T05:35:21.859Z,72.48
2023-04-10T05:38:33.960Z,73.00
2023-04-10T05:41:49.720Z,73.12
2023-04-10T05:45:04.640Z,72.97
2023-04-10T05:48:26.592Z,72.44
2023-04-10T05:51:59.489Z,73.02
2023-04-10T05:55:28.174Z,72.39
2023-04-10T05:58:53.600Z,72.31
2023-04-10T06:02:17.530Z,73.08
2023-04-10T06:05:22.953Z,72.93
2023-04-10T06:08:34.722Z,72.68
2023-04-10T06:11:39.116Z,72.58
2023-04-10T06:14:43.001Z,71.93
2023-04-10T06:17:48.889Z,70.63
2023-04-10T06:20:52.515Z,70.88
2023-04-10T06:23:57.092Z,70.67
2023-04-10T06:27:00.994Z,69.46
2023-04-10T06:30:06.306Z,69.37
2023-04-10T06:33:11.324Z,69.52
2023-04-10T06:36:21.093Z,69.17
2023-04-10T06:39:32.381Z,69.21
2023-04-10T06:42:36.470Z,69.59
2023-04-10T06:45:49.021Z,70.81
2023-04-10T06:48:54.790Z,70.89
2023-04-10T06:51:58.818Z,71.20
2023-04-10T06:55:02.741Z,71.31
2023-04-10T06:58:06.268Z,70.29
2023-04-10T07:01:10.478Z,71.28
2023-04-10T07:04:15.520Z,70.43
2023-04-10T07:07:19.566Z,71.27
2023-04-10T07:10:23.116Z,70.45
2023-04-10T07:13:27.030Z,70.42
2023-04-10T07:16:31.014Z,70.60
2023-04-10T07:19:38.113Z,70.56
2023-04-10T07:22:41.760Z,69.73
2023-04-10T07:25:46.094Z,69.99
2023-04-10T07:28:49.859Z,69.76
2023-04-10T07:31:53.997Z,70.15
2023-04-10T07:34:58.881Z,70.03
2023-04-10T07:38:03.145Z,68.83
2023-04-10T07:41:07.222Z,70.04
2023-04-10T07:44:11.427Z,69.78
2023-04-10T07:47:15.284Z,69.33
2023-04-10T07:50:30.486Z,69.15
2023-04-10T07:53:40.903Z,69.42
2023-04-10T07:56:49.078Z,69.41
2023-04-10T07:59:59.822Z,68.93
2023-04-10T08:03:05.934Z,68.55
2023-04-10T08:06:11.769Z,68.63
2023-04-10T08:09:17.569Z,69.25
2023-04-10T08:12:21.154Z,68.92
2023-04-10T08:15:25.369Z,69.15
2023-04-10T08:18:28.764Z,69.82
2023-04-10T08:21:34.341Z,69.29
2023-04-10T08:24:38.059Z,69.58
2023-04-10T08:27:47.738Z,69.17
2023-04-10T08:30:54.931Z,69.58
2023-04-10T08:33:59.373Z,69.42
2023-04-10T08:37:06.778Z,68.19
2023-04-10T08:40:12.282Z,69.73
2023-04-10T08:43:15.960Z,69.87
2023-04-10T08:46:22.523Z,68.48
2023-04-10T08:49:33.738Z,67.40
2023-04-10T08:52:44.762Z,69.31
2023-04-10T08:55:48.507Z,68.11
2023-04-10T08:58:53.610Z,68.24
2023-04-10T09:01:57.630Z,66.64
2023-04-10T09:05:04.882Z,67.58
2023-04-10T09:08:11.062Z,67.37
2023-04-10T09:11:18.233Z,67.26
2023-04-10T09:14:22.441Z,66.55
2023-04-10T09:17:26.369Z,66.09
2023-04-10T09:20:32.318Z,65.59
2023-04-10T09:23:37.663Z,67.26
2023-04-10T09:26:41.011Z,67.22
2023-04-10T09:29:49.128Z,67.38
2023-04-10T09:32:52.719Z,67.90
2023-04-10T09:36:00.046Z,67.32
2023-04-10T09:39:05.492Z,66.60
2023-04-10T09:42:09.917Z,66.44
2023-04-10T09:45:13.658Z,66.91
2023-04-10T09:48:19.438Z,67.41
2023-04-10T09:51:31.178Z,67.35
2023-04-10T09:54:40.148Z,66.31
2023-04-10T09:57:45.413Z,66.35
2023-04-10T10:00:53.410Z,66.21
2023-04-10T10:03:58.722Z,66.07
2023-04-10T10:07:03.184Z,66.68
2023-04-10T10:10:10.394Z,65.65
2023-04-10T10:13:19.288Z,65.70
2023-04-10T10:16:28.300Z,65.84
2023-04-10T10:19:39.946Z,65.44
2023-04-10T10:22:44.179Z,66.00
2023-04-10T10:25:50.744Z,65.27
2023-04-10T10:28:55.299Z,65.77
2023-04-10T10:32:02.977Z,64.97
2023-04-10T10:35:07.959Z,64.45
2023-04-10T10:38:12.590Z,64.33
2023-04-10T10:41:24.804Z,64.26
2023-04-10T10:44:38.290Z,64.42
2023-04-10T10:47:45.962Z,64.39
2023-04-10T10:50:56.407Z,64.90
2023-04-10T10:53:59.914Z,64.53
2023-04-10T10:57:09.265Z,64.34
2023-04-10T11:00:13.620Z,64.53
2023-04-10T11:03:29.282Z,65.35
2023-04-10T11:06:53.301Z,63.65
2023-04-10T11:09:57.823Z,64.68
2023-04-10T11:13:19.091Z,64.48
2023-04-10T11:16:24.653Z,64.64
2023-04-10T11:19:28.487Z,64.60
2023-04-10T11:22:32.561Z,64.07
2023-04-10T11:25:53.203Z,63.36
2023-04-10T11:28:58.995Z,62.31
2023-04-10T11:32:03.845Z,62.42
2023-04-10T11:35:08.871Z,62.56
2023-04-10T11:38:14.765Z,62.32
2023-04-10T11:41:18.764Z,61.99
2023-04-10T11:44:32.003Z,62.88
2023-04-10T11:47:36.446Z,62.79
2023-04-10T11:50:40.224Z,63.15
2023-04-10T11:54:07.191Z,62.64
2023-04-10T11:57:12.907Z,62.38
2023-04-10T12:00:25.933Z,60.98
2023-04-10T12:03:40.054Z,62.07
2023-04-10T12:06:46.989Z,60.55
2023-04-10T12:09:57.679Z,61.47
2023-04-10T12:13:02.146Z,60.54
2023-04-10T12:16:09.610Z,59.54
2023-04-10T12:19:15.498Z,59.16
2023-04-10T12:22:19.990Z,59.31
2023-04-10T12:25:23.905Z,60.72
2023-04-10T12:28:28.058Z,61.31
2023-04-10T12:31:35.695Z,59.89
2023-04-10T12:34:39.854Z,60.16
2023-04-10T12:37:51.233Z,59.70
2023-04-10T12:41:00.772Z,59.37
2023-04-10T12:44:10.058Z,59.13
2023-04-10T12:47:15.017Z,59.48
2023-04-10T12:50:20.852Z,57.81
2023-04-10T12:53:25.566Z,58.92
2023-04-10T12:56:41.357Z,59.04
2023-04-10T12:59:44.916Z,58.99
2023-04-10T13:02:50.356Z,58.29
2023-04-10T13:05:54.666Z,56.94
2023-04-10T13:08:58.489Z,58.03
2023-04-10T13:12:02.023Z,58.29
2023-04-10T13:15:07.710Z,57.79
2023-04-10T13:18:13.326Z,57.38
2023-04-10T13:21:22.687Z,57.44
2023-04-10T13:24:26.289Z,57.78
2023-04-10T13:27:30.184Z,57.09
2023-04-10T13:30:33.744Z,58.00
2023-04-10T13:33:39.191Z,58.09
2023-04-10T13:36:42.831Z,57.06
2023-04-10T13:39:47.283Z,57.40
2023-04-10T13:42:50.819Z,57.30
2023-04-10T13:45:54.781Z,56.87
2023-04-10T13:48:59.882Z,56.57
2023-04-10T13:52:04.033Z,56.13
2023-04-10T13:55:09.045Z,55.70
2023-04-10T13:58:13.491Z,57.44
2023-04-10T14:01:17.057Z,56.08
2023-04-10T14:04:22.434Z,55.07
2023-04-10T14:07:25.921Z,55.53
2023-04-10T14:10:30.168Z,54.51
2023-04-10T14:13:33.634Z,55.70
2023-04-10T14:16:37.431Z,56.42
2023-04-10T14:19:43.373Z,55.73
2023-04-10T14:22:47.824Z,56.10
2023-04-10T14:25:52.146Z,56.22
2023-04-10T14:28:56.159Z,56.86
2023-04-10T14:32:00.034Z,55.73
2023-04-10T14:35:06.030Z,55.77
2023-04-10T14:38:11.183Z,55.75
2023-04-10T14:41:15.145Z,56.41
2023-04-10T14:44:19.096Z,57.27
2023-04-10T14:47:24.138Z,56.48
2023-04-10T14:50:29.569Z,56.91
2023-04-10T14:53:33.827Z,56.58
2023-04-10T14:56:38.011Z,55.41
2023-04-10T14:59:42.048Z,55.71
2023-04-10T15:02:46.311Z,55.07
2023-04-10T15:06:00.298Z,55.51
2023-04-10T15:09:04.711Z,55.13
2023-04-10T15:12:09.007Z,55.68
2023-04-10T15:15:12.854Z,53.33
2023-04-10T15:18:17.184Z,57.82
2023-04-10T15:21:22.029Z,69.01
2023-04-10T15:24:25.943Z,69.97
2023-04-10T15:27:31.972Z,68.72
2023-04-10T15:34:04.607Z,70.21
2023-04-10T15:37:09.863Z,70.62
2023-04-10T15:40:13.640Z,69.69
2023-04-10T15:43:19.214Z,69.60
2023-04-10T15:46:22.795Z,68.59
2023-04-10T15:49:37.262Z,67.92
2023-04-10T15:52:43.570Z,67.74
2023-04-10T15:55:48.176Z,66.10
2023-04-10T15:59:10.963Z,65.82
2023-04-10T16:02:14.963Z,65.54
2023-04-10T16:05:18.908Z,66.28
2023-04-10T16:08:24.729Z,65.31
2023-04-10T16:11:28.287Z,65.23
2023-04-10T16:14:33.201Z,64.56
2023-04-10T16:17:39.736Z,65.33
2023-04-10T16:20:44.191Z,64.13
2023-04-10T16:23:49.294Z,65.24
2023-04-10T16:26:54.299Z,63.28
2023-04-10T16:29:58.461Z,63.92
2023-04-10T16:33:04.214Z,62.88
2023-04-10T16:36:09.310Z,62.41
2023-04-10T16:39:15.606Z,62.81
2023-04-10T16:42:19.989Z,62.63
2023-04-10T16:45:24.156Z,61.86
2023-04-10T16:48:28.231Z,63.38
2023-04-10T16:51:32.629Z,63.37
2023-04-10T16:54:38.256Z,63.35
2023-04-10T16:57:43.307Z,63.63
2023-04-10T17:00:46.851Z,62.92
2023-04-10T17:03:50.750Z,62.94
2023-04-10T17:06:54.425Z,63.10
2023-04-10T17:10:00.508Z,63.02
2023-04-10T17:13:04.063Z,63.00
2023-04-10T17:16:09.445Z,63.24
2023-04-10T17:19:13.574Z,63.50
2023-04-10T17:22:18.116Z,63.36
2023-04-10T17:25:24.011Z,63.72
2023-04-10T17:28:29.134Z,64.04
2023-04-10T17:31:32.854Z,64.01
2023-04-10T17:34:37.276Z,63.98
2023-04-10T17:37:40.932Z,64.28
2023-04-10T17:40:46.800Z,64.28
2023-04-10T17:43:51.931Z,63.91
2023-04-10T17:46:58.631Z,63.73
2023-04-10T17:50:02.524Z,63.25
2023-04-10T17:53:06.850Z,63.63
2023-04-10T17:56:21.030Z,63.16
2023-04-10T17:59:25.009Z,63.13
2023-04-10T18:02:28.824Z,62.87
2023-04-10T18:05:34.786Z,63.09
2023-04-10T18:08:38.777Z,62.69
2023-04-10T18:11:44.400Z,63.43
2023-04-10T18:14:49.743Z,62.97
2023-04-10T18:17:55.837Z,62.11
2023-04-10T18:20:59.847Z,61.71
2023-04-10T18:24:09.547Z,63.07
2023-04-10T18:27:18.776Z,64.16
2023-04-10T18:30:23.543Z,64.12
2023-04-10T18:33:28.093Z,63.79
2023-04-10T18:36:32.437Z,63.38
2023-04-10T18:39:38.429Z,63.85
2023-04-10T18:42:44.501Z,64.14
2023-04-10T18:45:48.290Z,64.21
2023-04-10T18:48:54.624Z,63.79
2023-04-10T18:51:58.497Z,63.72
2023-04-10T18:55:02.489Z,63.39
2023-04-10T18:58:07.830Z,63.92
2023-04-10T19:01:12.531Z,63.40
2023-04-10T19:04:16.997Z,62.52
2023-04-10T19:07:21.670Z,63.05
2023-04-10T19:10:25.271Z,63.49
2023-04-10T19:13:31.270Z,63.32
2023-04-10T19:16:35.176Z,63.76
2023-04-10T19:19:39.601Z,64.41
2023-04-10T19:22:43.190Z,64.08
2023-04-10T19:25:47.361Z,62.88
2023-04-10T19:28:52.268Z,62.48
2023-04-10T19:31:56.057Z,62.45
2023-04-10T19:34:59.588Z,63.17
2023-04-10T19:38:03.512Z,63.25
2023-04-10T19:41:14.759Z,63.00
2023-04-10T19:44:31.956Z,63.44
2023-04-10T19:47:44.361Z,62.69
2023-04-10T19:50:55.602Z,62.62
2023-04-10T19:53:59.386Z,62.47
2023-04-10T19:57:03.748Z,63.65
2023-04-10T20:00:15.728Z,63.34
2023-04-10T20:03:26.806Z,63.25
2023-04-10T20:06:31.943Z,63.13
2023-04-10T20:09:36.251Z,62.39
2023-04-10T20:12:40.434Z,62.71
2023-04-10T20:15:47.846Z,63.11
2023-04-10T20:18:56.021Z,62.97
2023-04-10T20:22:02.596Z,62.88
2023-04-10T20:25:08.009Z,62.96
2023-04-10T20:28:12.053Z,63.15
2023-04-10T20:31:17.210Z,62.97
2023-04-10T20:34:21.336Z,62.79
2023-04-10T20:37:25.553Z,64.49
2023-04-10T20:40:29.911Z,66.00
2023-04-10T20:43:33.949Z,64.82
2023-04-10T20:46:40.444Z,64.59
2023-04-10T20:49:44.273Z,63.95
2023-04-10T20:52:48.084Z,63.62
2023-04-10T20:55:54.067Z,63.24
2023-04-10T20:58:58.524Z,63.35
2023-04-10T21:02:03.501Z,63.40
2023-04-10T21:05:07.734Z,63.26
2023-04-10T21:08:12.640Z,62.57
2023-04-10T21:11:16.744Z,62.97
2023-04-10T21:14:20.378Z,62.75
2023-04-10T21:17:29.040Z,62.82
2023-04-10T21:20:33.898Z,62.81
2023-04-10T21:23:37.720Z,63.87
2023-04-10T21:26:41.165Z,63.35
2023-04-10T21:29:45.187Z,63.52
2023-04-10T21:32:50.270Z,63.19
2023-04-10T21:35:54.436Z,63.94
2023-04-10T21:38:58.107Z,63.63
2023-04-10T21:42:02.586Z,63.50
2023-04-10T21:45:07.019Z,63.65
2023-04-10T21:48:12.942Z,63.33
2023-04-10T21:51:16.588Z,63.44
2023-04-10T21:54:20.798Z,63.46
2023-04-10T21:57:24.480Z,63.41
2023-04-10T22:00:28.990Z,62.46
2023-04-10T22:03:34.072Z,62.46
2023-04-10T22:06:38.093Z,61.85
2023-04-10T22:09:41.608Z,62.83
2023-04-10T22:12:48.549Z,63.12
2023-04-10T22:15:52.546Z,63.26
2023-04-10T22:18:57.776Z,62.95
2023-04-10T22:22:01.176Z,63.27
2023-04-10T22:25:05.390Z,62.68
2023-04-10T22:28:08.882Z,62.65
2023-04-10T22:31:16.660Z,62.68
2023-04-10T22:34:21.689Z,62.62
2023-04-10T22:37:25.537Z,63.51
2023-04-10T22:40:29.100Z,64.25
2023-04-10T22:43:34.900Z,63.98
2023-04-10T22:46:39.672Z,64.00
2023-04-10T22:49:44.875Z,63.46
2023-04-10T22:52:48.417Z,63.03
2023-04-10T22:55:52.239Z,62.90
2023-04-10T22:58:56.070Z,62.73
2023-04-10T23:02:00.800Z,62.68
2023-04-10T23:05:06.440Z,63.50
2023-04-10T23:08:10.509Z,63.49
2023-04-10T23:11:13.982Z,63.34
2023-04-10T23:14:18.200Z,63.25
2023-04-10T23:17:21.898Z,62.52
2023-04-10T23:20:27.545Z,61.81
2023-04-10T23:23:31.342Z,61.89
2023-04-10T23:26:35.818Z,62.45
2023-04-10T23:29:39.477Z,62.57
2023-04-10T23:32:43.423Z,62.79
2023-04-10T23:35:48.459Z,62.69
2023-04-10T23:38:53.078Z,62.18
2023-04-10T23:41:57.395Z,63.33
2023-04-10T23:45:01.567Z,62.27
2023-04-10T23:48:07.597Z,62.19
2023-04-10T23:51:13.366Z,61.80
2023-04-10T23:54:16.987Z,61.79
2023-04-10T23:57:21.302Z,61.79
